Time;durP1;ratioP1;P1;durP2;ratioP2;P2;SDS_P1;SDS_P2;PMS_P1;PMS_P2;Temp;Humidity;BMP_temperature;BMP_pressure;BME280_temperature;BME280_humidity;BME280_pressure;Samples;Min_cycle;Max_cycle;Signal;HPM_P1;HPM_P2
2022/07/18 00:02:03;;;;;;;2.80;2.20;;;15.90;99.90;;;;;;5035814;28;19935;-57
2022/07/18 00:04:30;;;;;;;5.70;3.10;;;15.80;99.90;;;;;;5033955;28;20122;-57
2022/07/18 00:06:57;;;;;;;3.63;3.25;;;15.80;99.90;;;;;;5036175;28;20175;-57
2022/07/18 00:09:24;;;;;;;5.88;3.30;;;15.70;99.90;;;;;;5042173;28;20040;-57
2022/07/18 00:11:51;;;;;;;10.23;2.97;;;15.70;99.90;;;;;;5052808;28;20117;-57
2022/07/18 00:14:20;;;;;;;6.55;3.05;;;15.60;99.90;;;;;;5040136;28;20059;-56
2022/07/18 00:16:48;;;;;;;3.38;3.03;;;15.60;99.90;;;;;;5035291;28;20052;-57
2022/07/18 00:19:16;;;;;;;5.32;3.22;;;15.60;99.90;;;;;;5035860;28;20068;-56
2022/07/18 00:21:42;;;;;;;3.72;3.30;;;15.60;99.90;;;;;;5035719;28;20070;-57
2022/07/18 00:24:09;;;;;;;;;;;15.60;99.90;;;;;;5043528;28;20037;-57
2022/07/18 00:26:37;;;;;;;3.00;2.70;;;15.60;99.90;;;;;;5055060;28;20584;-56
2022/07/18 00:29:04;;;;;;;5.25;3.22;;;15.60;99.90;;;;;;5055329;28;20056;-57
2022/07/18 00:31:32;;;;;;;3.75;2.72;;;15.60;99.90;;;;;;5034942;28;20098;-56
2022/07/18 00:34:00;;;;;;;7.07;3.50;;;15.60;99.90;;;;;;5035231;28;20712;-57
2022/07/18 00:36:27;;;;;;;3.20;2.88;;;15.50;99.90;;;;;;5035324;28;20975;-57
2022/07/18 00:38:55;;;;;;;7.47;3.28;;;15.50;99.90;;;;;;5034675;28;20056;-57
2022/07/18 00:41:22;;;;;;;3.55;2.80;;;15.50;99.90;;;;;;5052281;28;20129;-57
2022/07/18 00:43:50;;;;;;;3.05;2.72;;;15.50;99.90;;;;;;5054920;28;20125;-57
2022/07/18 00:46:24;;;;;;;4.35;3.20;;;15.60;99.90;;;;;;5055441;28;20052;-57
2022/07/18 00:48:51;;;;;;;3.58;3.00;;;15.60;99.90;;;;;;5034588;28;20746;-57
2022/07/18 00:51:19;;;;;;;3.33;3.00;;;15.60;99.90;;;;;;5017370;28;20072;-56
2022/07/18 00:53:47;;;;;;;9.85;3.30;;;15.60;99.90;;;;;;5034811;28;20114;-57
2022/07/18 00:56:19;;;;;;;3.47;2.95;;;15.50;99.90;;;;;;5034742;28;20787;-58
2022/07/18 00:58:46;;;;;;;4.55;3.30;;;15.50;99.90;;;;;;5034562;28;20500;-57
2022/07/18 01:03:59;;;;;;;4.03;2.65;;;15.40;99.90;;;;;;5035066;28;20041;-57
2022/07/18 01:06:26;;;;;;;4.20;3.03;;;15.40;99.90;;;;;;5034127;28;20048;-57
2022/07/18 01:08:53;;;;;;;5.97;2.50;;;15.40;99.90;;;;;;5036997;28;20041;-57
2022/07/18 01:11:21;;;;;;;;;;;15.30;99.90;;;;;;5052156;28;20040;-56
2022/07/18 01:13:48;;;;;;;;;;;15.30;99.90;;;;;;5043442;28;19971;-56
2022/07/18 01:16:16;;;;;;;4.55;3.53;;;15.30;99.90;;;;;;5034276;28;19932;-57
2022/07/18 01:18:49;;;;;;;3.40;2.80;;;15.30;99.90;;;;;;5034454;28;20114;-57
2022/07/18 01:21:16;;;;;;;3.47;2.60;;;15.20;99.90;;;;;;5035219;28;20045;-57
2022/07/18 01:23:44;;;;;;;4.72;3.10;;;15.10;99.90;;;;;;5038018;28;20036;-55
2022/07/18 01:26:15;;;;;;;3.67;2.92;;;15.10;99.90;;;;;;5054028;28;20097;-57
2022/07/18 01:28:44;;;;;;;5.07;2.72;;;15.10;99.90;;;;;;5054520;28;20059;-57
2022/07/18 01:31:11;;;;;;;4.85;2.78;;;15.10;99.90;;;;;;5035839;28;20178;-57
2022/07/18 01:33:39;;;;;;;;;;;15.10;99.90;;;;;;5034304;28;20080;-57
2022/07/18 01:36:07;;;;;;;4.90;3.13;;;15.10;99.90;;;;;;5034465;28;19924;-55
2022/07/18 01:38:34;;;;;;;3.33;2.63;;;15.10;99.90;;;;;;5034483;28;20829;-55
2022/07/18 01:41:02;;;;;;;7.30;3.00;;;15.10;99.90;;;;;;5040799;28;20046;-57
2022/07/18 01:43:29;;;;;;;4.13;2.88;;;15.10;99.90;;;;;;5034597;28;20658;-56
2022/07/18 01:45:56;;;;;;;;;;;15.10;99.90;;;;;;5054660;28;20058;-56
2022/07/18 01:48:24;;;;;;;4.75;3.05;;;15.10;99.90;;;;;;5052520;28;19924;-57
2022/07/18 01:50:51;;;;;;;3.58;2.67;;;15.10;99.90;;;;;;5053052;28;20139;-57
2022/07/18 01:53:18;;;;;;;3.55;3.00;;;15.10;99.90;;;;;;5053741;28;20040;-57
2022/07/18 01:55:46;;;;;;;3.92;3.03;;;15.10;99.90;;;;;;5053546;28;20048;-57
2022/07/18 01:58:12;;;;;;;3.10;2.80;;;15.00;99.90;;;;;;5041391;28;20440;-56
2022/07/18 02:00:40;;;;;;;3.40;3.10;;;15.00;99.90;;;;;;5033331;28;20045;-57
2022/07/18 02:03:07;;;;;;;5.57;3.15;;;15.00;99.90;;;;;;5032100;28;20033;-56
2022/07/18 02:05:34;;;;;;;6.05;2.95;;;15.00;99.90;;;;;;5033715;28;20051;-57
2022/07/18 02:08:00;;;;;;;;;;;14.90;99.90;;;;;;5033785;28;20041;-57
2022/07/18 02:10:27;;;;;;;3.53;3.20;;;14.90;99.90;;;;;;5048564;28;19929;-56
2022/07/18 02:12:54;;;;;;;;;;;14.90;99.90;;;;;;5028707;28;20833;-57
2022/07/18 02:15:21;;;;;;;4.22;3.30;;;14.80;99.90;;;;;;5033685;28;19924;-57
2022/07/18 02:17:47;;;;;;;;;;;14.80;99.90;;;;;;5033983;28;20060;-57
2022/07/18 02:20:15;;;;;;;6.35;3.60;;;14.70;99.90;;;;;;5033546;28;19921;-56
2022/07/18 02:22:42;;;;;;;5.60;3.25;;;14.70;99.90;;;;;;5033815;28;20052;-56
2022/07/18 02:25:10;;;;;;;9.77;4.60;;;14.70;99.90;;;;;;5047295;28;20050;-56
2022/07/18 02:27:37;;;;;;;10.05;3.28;;;14.60;99.90;;;;;;5053117;28;20045;-56
2022/07/18 02:30:06;;;;;;;4.35;3.20;;;14.60;99.90;;;;;;5042825;28;20052;-57
2022/07/18 02:32:36;;;;;;;4.95;3.40;;;14.60;99.90;;;;;;5033139;28;20045;-57
2022/07/18 02:35:06;;;;;;;10.75;3.10;;;14.60;99.90;;;;;;5032745;28;20052;-56
2022/07/18 02:37:33;;;;;;;6.20;3.35;;;14.60;99.90;;;;;;5032811;28;20048;-57
2022/07/18 02:40:00;;;;;;;4.38;3.00;;;14.60;99.90;;;;;;5032937;28;20036;-56
2022/07/18 02:42:27;;;;;;;;;;;14.60;99.90;;;;;;5025354;28;20036;-57
2022/07/18 02:44:54;;;;;;;4.45;3.53;;;14.60;99.90;;;;;;5052379;28;19928;-57
2022/07/18 02:47:21;;;;;;;;;;;14.60;99.90;;;;;;5054605;28;20047;-56
2022/07/18 02:49:47;;;;;;;7.78;2.88;;;14.60;99.90;;;;;;5054518;28;19928;-57
2022/07/18 02:52:14;;;;;;;;;;;14.50;99.90;;;;;;5054630;28;20052;-56
2022/07/18 02:54:41;;;;;;;3.38;3.00;;;14.50;99.90;;;;;;5053429;28;19928;-57
2022/07/18 02:57:08;;;;;;;6.05;3.70;;;14.50;99.90;;;;;;5050210;28;20117;-56
2022/07/18 02:59:35;;;;;;;;;;;14.50;99.90;;;;;;5034593;28;20098;-57
2022/07/18 03:02:02;;;;;;;11.25;3.90;;;14.50;99.90;;;;;;5049636;28;20603;-57
2022/07/18 03:04:30;;;;;;;8.10;3.80;;;14.50;99.90;;;;;;5053928;28;20058;-56
2022/07/18 03:06:57;;;;;;;3.75;3.08;;;14.50;99.90;;;;;;5036286;28;20482;-58
2022/07/18 03:09:26;;;;;;;;;;;14.60;99.90;;;;;;5054779;28;20043;-56
2022/07/18 03:11:55;;;;;;;5.13;3.13;;;14.60;99.90;;;;;;5050058;28;19924;-56
2022/07/18 03:14:22;;;;;;;3.63;3.00;;;14.60;99.90;;;;;;5036673;28;20045;-58
2022/07/18 03:16:49;;;;;;;3.22;2.83;;;14.60;99.90;;;;;;5034687;28;20053;-57
2022/07/18 03:19:16;;;;;;;;;;;14.60;99.90;;;;;;5032774;28;20049;-56
2022/07/18 03:21:43;;;;;;;3.63;3.22;;;14.60;99.90;;;;;;5034270;28;20347;-58
2022/07/18 03:24:10;;;;;;;;;;;14.60;99.90;;;;;;5042608;28;20040;-58
2022/07/18 03:26:38;;;;;;;3.97;3.50;;;14.60;99.90;;;;;;5053631;28;19929;-57
2022/07/18 03:29:04;;;;;;;5.72;3.00;;;14.60;99.90;;;;;;5053161;28;20083;-57
2022/07/18 03:31:31;;;;;;;;;;;14.50;99.90;;;;;;5016201;28;20107;-57
2022/07/18 03:33:59;;;;;;;2.72;2.53;;;14.50;99.90;;;;;;5033876;28;19936;-57
2022/07/18 03:36:26;;;;;;;3.88;2.60;;;14.50;99.90;;;;;;5033387;28;20645;-57
2022/07/18 03:38:52;;;;;;;;;;;14.40;99.90;;;;;;5033396;28;20126;-56
2022/07/18 03:41:19;;;;;;;3.40;2.92;;;14.40;99.90;;;;;;5033713;28;19970;-57
2022/07/18 03:43:46;;;;;;;5.88;3.10;;;14.40;99.90;;;;;;5045465;28;20037;-58
2022/07/18 03:46:13;;;;;;;;;;;14.40;99.90;;;;;;5036081;28;20045;-57
2022/07/18 03:48:40;;;;;;;9.63;3.55;;;14.30;99.90;;;;;;5052534;28;20422;-57
2022/07/18 03:51:06;;;;;;;;;;;14.30;99.90;;;;;;5054569;28;20049;-57
2022/07/18 03:53:33;;;;;;;3.97;3.35;;;14.30;99.90;;;;;;5053057;28;19946;-57
2022/07/18 03:56:00;;;;;;;6.55;2.75;;;14.30;99.90;;;;;;5053450;28;20366;-57
2022/07/18 03:58:27;;;;;;;;;;;14.30;99.90;;;;;;5051264;28;20048;-57
2022/07/18 04:00:54;;;;;;;3.65;3.00;;;14.30;99.90;;;;;;5053656;28;19931;-56
2022/07/18 04:03:21;;;;;;;5.18;3.30;;;14.30;99.90;;;;;;5053635;28;20037;-57
2022/07/18 04:05:48;;;;;;;3.85;3.30;;;14.30;99.90;;;;;;5053036;28;20076;-57
2022/07/18 04:08:15;;;;;;;6.25;3.15;;;14.30;99.90;;;;;;5053914;28;20040;-56
2022/07/18 04:10:43;;;;;;;5.18;3.22;;;14.30;99.90;;;;;;5035559;28;20080;-56
2022/07/18 04:13:10;;;;;;;4.85;3.30;;;14.30;99.90;;;;;;5034320;28;20124;-50
2022/07/18 04:15:37;;;;;;;4.68;3.45;;;14.30;99.90;;;;;;5036562;28;20044;-48
2022/07/18 04:18:05;;;;;;;4.90;3.08;;;14.30;99.90;;;;;;5018940;28;20037;-52
2022/07/18 04:20:33;;;;;;;4.95;3.40;;;14.40;99.90;;;;;;5034906;28;20037;-49
2022/07/18 04:23:03;;;;;;;5.00;3.60;;;14.40;99.90;;;;;;5036891;28;20895;-47
2022/07/18 04:25:38;;;;;;;4.82;3.78;;;14.40;99.90;;;;;;5036588;28;20933;-47
2022/07/18 04:28:07;;;;;;;4.20;3.80;;;14.50;99.90;;;;;;5036584;28;20045;-49
2022/07/18 04:30:35;;;;;;;8.70;3.63;;;14.60;99.90;;;;;;5048280;28;20044;-47
2022/07/18 04:33:04;;;;;;;5.20;4.25;;;14.60;99.90;;;;;;5038373;28;20056;-48
2022/07/18 04:35:32;;;;;;;3.65;3.33;;;14.70;99.90;;;;;;5038855;28;20583;-50
2022/07/18 04:37:59;;;;;;;6.22;3.40;;;14.70;99.90;;;;;;5056481;28;20044;-49
2022/07/18 04:40:25;;;;;;;;;;;14.80;99.90;;;;;;5056028;28;20037;-49
2022/07/18 04:42:52;;;;;;;3.90;3.50;;;14.80;99.90;;;;;;5056025;28;19921;-52
2022/07/18 04:45:21;;;;;;;3.58;3.00;;;14.90;99.90;;;;;;5054840;28;20037;-46
2022/07/18 04:47:50;;;;;;;3.83;3.40;;;15.00;99.90;;;;;;5056312;28;20128;-53
2022/07/18 04:50:17;;;;;;;4.18;3.63;;;15.10;99.90;;;;;;5038062;28;20052;-49
2022/07/18 04:52:46;;;;;;;16.42;4.18;;;15.20;99.90;;;;;;5056408;28;20045;-48
2022/07/18 04:55:15;;;;;;;4.82;3.28;;;15.20;99.90;;;;;;5055987;28;20097;-48
2022/07/18 04:57:42;;;;;;;6.88;3.88;;;15.30;99.90;;;;;;5049283;28;20047;-48
2022/07/18 05:00:20;;;;;;;4.75;3.67;;;15.40;99.90;;;;;;5035350;28;20943;-46
2022/07/18 05:02:49;;;;;;;4.13;3.40;;;15.50;99.90;;;;;;5036576;28;20669;-49
2022/07/18 05:05:18;;;;;;;5.25;3.50;;;15.60;99.90;;;;;;5036114;28;20800;-49
2022/07/18 05:07:46;;;;;;;4.82;3.55;;;15.70;99.90;;;;;;5036124;28;20041;-46
2022/07/18 05:10:15;;;;;;;4.40;3.50;;;15.80;99.90;;;;;;5047731;28;20058;-48
2022/07/18 05:12:45;;;;;;;5.90;3.45;;;15.80;99.90;;;;;;5050280;28;20126;-49
2022/07/18 05:15:14;;;;;;;5.88;3.83;;;15.90;99.90;;;;;;5035876;28;20560;-46
2022/07/18 05:17:43;;;;;;;5.38;3.47;;;15.90;99.90;;;;;;5035026;28;20176;-47
2022/07/18 05:20:13;;;;;;;7.10;3.38;;;16.00;99.90;;;;;;5035643;28;20053;-47
2022/07/18 05:22:41;;;;;;;6.80;3.55;;;16.10;99.90;;;;;;5035617;28;20071;-56
2022/07/18 05:25:09;;;;;;;6.10;3.15;;;16.20;99.90;;;;;;5051095;28;20756;-54
2022/07/18 05:27:37;;;;;;;4.35;3.25;;;16.30;99.90;;;;;;5053638;28;20040;-54
2022/07/18 05:30:06;;;;;;;4.65;3.38;;;16.40;99.90;;;;;;5046837;28;20040;-52
2022/07/18 05:32:33;;;;;;;3.50;3.20;;;16.50;99.90;;;;;;5035908;28;20795;-51
2022/07/18 05:35:00;;;;;;;8.55;3.15;;;16.60;99.90;;;;;;5034893;28;20056;-54
2022/07/18 05:37:27;;;;;;;;;;;16.70;99.90;;;;;;5036282;28;20057;-51
2022/07/18 05:39:54;;;;;;;5.40;3.95;;;16.80;99.90;;;;;;5034738;28;19924;-53
2022/07/18 05:42:20;;;;;;;;;;;16.90;99.90;;;;;;5036205;28;20112;-50
2022/07/18 05:45:08;;;;;;;8.13;3.60;;;17.00;99.90;;;;;;5042062;28;20013;-52
2022/07/18 05:47:35;;;;;;;5.55;3.35;;;17.20;99.90;;;;;;5025732;28;20063;-54
2022/07/18 05:50:04;;;;;;;7.28;3.40;;;17.30;99.90;;;;;;5035163;28;20045;-53
2022/07/18 05:52:31;;;;;;;4.40;3.13;;;17.40;99.90;;;;;;5035189;28;20082;-52
2022/07/18 05:54:58;;;;;;;;;;;17.60;99.90;;;;;;5034060;28;20037;-54
2022/07/18 05:57:24;;;;;;;5.07;3.65;;;17.60;99.90;;;;;;5036767;28;19928;-54
2022/07/18 05:59:51;;;;;;;3.95;3.08;;;17.80;99.90;;;;;;5054103;28;20118;-54
2022/07/18 06:02:18;;;;;;;;;;;17.90;99.90;;;;;;5041882;28;20049;-54
2022/07/18 06:04:45;;;;;;;4.07;3.30;;;18.00;99.90;;;;;;5034877;28;20515;-53
2022/07/18 06:07:32;;;;;;;3.83;3.28;;;18.10;99.90;;;;;;5034437;28;20075;-53
2022/07/18 06:09:59;;;;;;;4.60;3.13;;;18.20;99.90;;;;;;5046469;28;20185;-54
2022/07/18 06:12:30;;;;;;;5.18;3.40;;;18.30;99.90;;;;;;5051380;28;20372;-55
2022/07/18 06:14:58;;;;;;;8.40;3.20;;;18.40;99.90;;;;;;5034981;28;20049;-56
2022/07/18 06:17:27;;;;;;;4.10;2.65;;;18.50;99.90;;;;;;5034398;28;20049;-53
2022/07/18 06:19:55;;;;;;;5.93;3.45;;;18.60;99.90;;;;;;5033490;28;20044;-46
2022/07/18 06:22:25;;;;;;;5.28;2.88;;;18.80;99.90;;;;;;5035232;28;20763;-63
2022/07/18 06:24:53;;;;;;;5.82;3.00;;;18.90;99.90;;;;;;5047436;28;20041;-61
2022/07/18 06:27:19;;;;;;;4.05;3.33;;;19.00;99.90;;;;;;5054733;28;20854;-62
2022/07/18 06:29:46;;;;;;;6.82;4.13;;;19.10;99.90;;;;;;5047032;28;20110;-63
2022/07/18 06:32:13;;;;;;;5.07;3.17;;;19.20;99.90;;;;;;5034634;28;20090;-59
2022/07/18 06:34:40;;;;;;;6.93;3.05;;;19.30;99.90;;;;;;5034070;28;20041;-58
2022/07/18 06:37:07;;;;;;;7.38;3.65;;;19.40;99.90;;;;;;5034325;28;20045;-61
2022/07/18 06:39:34;;;;;;;6.20;3.35;;;19.60;99.90;;;;;;5034923;28;20875;-60
2022/07/18 06:42:01;;;;;;;4.45;3.35;;;19.60;99.90;;;;;;5034318;28;20049;-63
2022/07/18 06:44:28;;;;;;;10.52;3.75;;;19.70;99.90;;;;;;5016786;28;20045;-60
2022/07/18 06:46:57;;;;;;;5.35;3.10;;;19.90;99.90;;;;;;5029251;28;20047;-62
2022/07/18 06:49:25;;;;;;;3.15;2.72;;;19.90;99.90;;;;;;5054032;28;20412;-61
2022/07/18 06:51:52;;;;;;;3.38;3.08;;;20.00;99.90;;;;;;5053934;28;20048;-60
2022/07/18 06:54:20;;;;;;;4.38;3.38;;;20.10;99.90;;;;;;5053792;28;20037;-60
2022/07/18 06:56:47;;;;;;;4.05;3.03;;;20.20;99.90;;;;;;5053713;28;20044;-62
2022/07/18 06:59:13;;;;;;;5.53;3.03;;;20.30;99.90;;;;;;5053429;28;20082;-61
2022/07/18 07:01:41;;;;;;;4.38;2.92;;;20.50;99.90;;;;;;5054372;28;20462;-65
2022/07/18 07:04:08;;;;;;;4.20;3.28;;;20.60;99.90;;;;;;5050871;28;20052;-63
2022/07/18 07:06:38;;;;;;;3.58;3.28;;;20.70;99.90;;;;;;5051666;28;20052;-63
2022/07/18 07:09:05;;;;;;;5.07;3.63;;;20.90;99.90;;;;;;5047733;28;20045;-64
2022/07/18 07:11:33;;;;;;;4.15;3.28;;;21.00;99.90;;;;;;5051060;28;20044;-64
2022/07/18 07:14:01;;;;;;;6.78;3.33;;;21.10;99.90;;;;;;5037887;28;20439;-60
2022/07/18 07:16:29;;;;;;;5.75;3.83;;;21.20;99.20;;;;;;5031947;28;20053;-62
2022/07/18 07:18:56;;;;;;;3.08;2.75;;;21.30;99.40;;;;;;5033366;28;20052;-64
2022/07/18 07:21:24;;;;;;;7.25;3.15;;;21.50;99.00;;;;;;5033725;28;20534;-64
2022/07/18 07:23:51;;;;;;;7.70;3.17;;;21.60;98.20;;;;;;5020838;28;20047;-67
2022/07/18 07:26:18;;;;;;;7.00;3.40;;;21.70;97.00;;;;;;5049118;28;20120;-66
2022/07/18 07:28:45;;;;;;;4.22;3.42;;;21.80;97.70;;;;;;5033292;28;20057;-66
2022/07/18 07:31:13;;;;;;;10.07;3.17;;;22.00;96.80;;;;;;5033015;28;20045;-63
2022/07/18 07:33:44;;;;;;;6.50;2.70;;;22.10;96.20;;;;;;5052715;28;20055;-63
2022/07/18 07:36:11;;;;;;;5.53;2.85;;;22.30;96.20;;;;;;5051608;28;20052;-59
2022/07/18 07:38:38;;;;;;;13.88;3.83;;;22.40;94.50;;;;;;5054087;28;20052;-59
2022/07/18 07:41:06;;;;;;;9.57;4.00;;;22.50;94.10;;;;;;5053432;28;20070;-58
2022/07/18 07:43:36;;;;;;;13.88;3.85;;;22.60;93.50;;;;;;5052959;28;20055;-59
2022/07/18 07:46:03;;;;;;;9.68;3.72;;;22.70;97.20;;;;;;5053990;28;20638;-58
2022/07/18 07:48:29;;;;;;;10.60;3.95;;;22.80;96.70;;;;;;5052014;28;20040;-60
2022/07/18 07:50:57;;;;;;;15.63;4.57;;;22.90;96.40;;;;;;5040060;28;20049;-59
2022/07/18 07:53:25;;;;;;;6.13;2.75;;;23.00;92.20;;;;;;5056909;28;20048;-60
2022/07/18 07:55:51;;;;;;;7.25;3.90;;;23.10;90.90;;;;;;5057271;28;20718;-61
2022/07/18 07:58:18;;;;;;;10.13;2.88;;;23.20;92.30;;;;;;5042463;28;20036;-58
2022/07/18 08:00:45;;;;;;;9.88;3.58;;;23.40;95.00;;;;;;5037675;28;20040;-59
2022/07/18 08:03:12;;;;;;;9.70;3.28;;;23.50;94.50;;;;;;5036865;28;20048;-61
2022/07/18 08:05:49;;;;;;;19.77;3.30;;;23.70;93.60;;;;;;5035810;28;20147;-60
2022/07/18 08:08:17;;;;;;;27.77;4.43;;;23.80;91.20;;;;;;5037575;28;20041;-61
2022/07/18 08:10:46;;;;;;;14.95;3.92;;;24.00;92.80;;;;;;5052612;28;20044;-59
2022/07/18 08:13:14;;;;;;;28.20;4.30;;;24.20;90.10;;;;;;5049906;28;20690;-61
2022/07/18 08:15:41;;;;;;;19.02;4.30;;;24.30;91.70;;;;;;5037028;28;20130;-60
2022/07/18 08:18:08;;;;;;;33.15;4.97;;;24.50;89.10;;;;;;5036998;28;20059;-60
2022/07/18 08:20:35;;;;;;;6.10;3.40;;;24.70;90.70;;;;;;5036941;28;20522;-61
2022/07/18 08:23:05;;;;;;;18.63;5.38;;;25.00;90.10;;;;;;5036939;28;21028;-62
2022/07/18 08:25:36;;;;;;;19.98;4.25;;;25.40;84.90;;;;;;5055339;28;20760;-61
2022/07/18 08:28:04;;;;;;;14.60;4.15;;;25.70;80.30;;;;;;5057317;28;20048;-60
2022/07/18 08:30:32;;;;;;;4.80;3.85;;;25.80;80.60;;;;;;5043702;28;20056;-60
2022/07/18 08:33:00;;;;;;;7.63;3.50;;;26.00;76.70;;;;;;5035073;28;20202;-60
2022/07/18 08:35:28;;;;;;;6.32;3.80;;;26.30;75.30;;;;;;5036581;28;20135;-61
2022/07/18 08:37:55;;;;;;;16.80;3.05;;;26.40;75.30;;;;;;5035958;28;20056;-60
2022/07/18 08:40:22;;;;;;;8.32;3.67;;;26.50;71.90;;;;;;5035888;28;20192;-59
2022/07/18 08:42:55;;;;;;;10.60;3.72;;;26.70;72.70;;;;;;5034150;28;20045;-60
2022/07/18 08:45:46;;;;;;;8.02;3.10;;;27.00;73.60;;;;;;5035556;28;20052;-60
2022/07/18 08:48:14;;;;;;;5.32;3.25;;;27.30;68.50;;;;;;5049730;28;20098;-59
2022/07/18 08:50:46;;;;;;;7.15;3.00;;;27.50;65.90;;;;;;5055788;28;20048;-61
2022/07/18 08:53:14;;;;;;;11.38;3.13;;;27.70;63.90;;;;;;5038090;28;20122;-61
2022/07/18 08:55:41;;;;;;;14.23;3.05;;;27.90;61.20;;;;;;5038100;28;20048;-58
2022/07/18 08:58:10;;;;;;;8.82;2.72;;;28.10;60.20;;;;;;5037581;28;20056;-59
2022/07/18 09:01:00;;;;;;;10.25;3.28;;;28.20;62.20;;;;;;5040739;28;20133;-60
2022/07/18 09:03:27;;;;;;;9.60;3.75;;;28.50;62.30;;;;;;5055860;28;20098;-59
2022/07/18 09:06:11;;;;;;;8.35;3.20;;;28.70;62.40;;;;;;5055396;28;20036;-59
2022/07/18 09:08:40;;;;;;;11.65;4.05;;;29.00;59.90;;;;;;5056168;28;20036;-61
2022/07/18 09:11:11;;;;;;;7.88;3.47;;;29.00;57.20;;;;;;5038136;28;20132;-59
2022/07/18 09:13:58;;;;;;;5.97;3.47;;;29.00;58.70;;;;;;5035817;28;20138;-61
2022/07/18 09:16:26;;;;;;;9.75;3.05;;;29.10;58.70;;;;;;5035957;28;20124;-61
2022/07/18 09:18:53;;;;;;;13.52;3.42;;;29.30;58.40;;;;;;5035836;28;20048;-61
2022/07/18 09:21:22;;;;;;;8.63;2.70;;;29.40;57.30;;;;;;5035873;28;20045;-59
2022/07/18 09:23:52;;;;;;;7.90;3.20;;;29.60;56.50;;;;;;5035683;28;20124;-61
2022/07/18 09:26:42;;;;;;;7.13;3.00;;;29.70;55.90;;;;;;5035238;28;20041;-60
2022/07/18 09:29:14;;;;;;;7.40;3.22;;;29.90;54.20;;;;;;5037472;28;20041;-60
2022/07/18 09:31:54;;;;;;;3.53;3.08;;;30.10;52.70;;;;;;5039445;28;20826;-60
2022/07/18 09:34:39;;;;;;;5.57;2.25;;;30.30;52.50;;;;;;5055638;28;20055;-61
2022/07/18 09:37:11;;;;;;;8.88;3.05;;;30.50;49.90;;;;;;5055274;28;20269;-61
2022/07/18 09:39:38;;;;;;;5.93;2.58;;;30.50;51.90;;;;;;5055198;28;20049;-60
2022/07/18 09:42:16;;;;;;;5.65;3.08;;;30.70;49.80;;;;;;5053297;28;20400;-61
2022/07/18 09:44:56;;;;;;;3.78;2.08;;;30.80;48.50;;;;;;5054424;28;20712;-61
2022/07/18 09:47:23;;;;;;;12.25;3.03;;;30.80;47.90;;;;;;5046646;28;20045;-61
2022/07/18 09:49:50;;;;;;;5.82;2.60;;;31.00;46.30;;;;;;5046833;28;20047;-60
2022/07/18 09:52:17;;;;;;;4.10;2.80;;;31.10;46.30;;;;;;5054719;28;20056;-62
2022/07/18 09:54:44;;;;;;;8.57;2.47;;;31.10;45.60;;;;;;5054911;28;20102;-60
2022/07/18 09:57:24;;;;;;;5.07;2.67;;;31.20;45.80;;;;;;5055404;28;20040;-61
2022/07/18 09:59:51;;;;;;;4.53;3.17;;;31.30;46.30;;;;;;5036884;28;20048;-60
2022/07/18 10:02:19;;;;;;;7.80;2.78;;;31.30;46.90;;;;;;5054959;28;20141;-60
2022/07/18 10:04:47;;;;;;;5.38;2.45;;;31.40;44.30;;;;;;5052740;28;20749;-60
2022/07/18 10:07:15;;;;;;;3.97;2.50;;;31.40;44.00;;;;;;5036707;28;20272;-60
2022/07/18 10:09:44;;;;;;;6.32;4.70;;;31.50;43.70;;;;;;5046435;28;20036;-61
2022/07/18 10:12:14;;;;;;;6.30;4.32;;;31.50;43.80;;;;;;5035967;28;20045;-60
2022/07/18 10:14:42;;;;;;;3.72;1.83;;;31.60;44.30;;;;;;5034019;28;20142;-61
2022/07/18 10:17:10;;;;;;;1.65;1.55;;;31.70;42.70;;;;;;5032864;28;20115;-61
2022/07/18 10:19:37;;;;;;;2.45;2.25;;;31.70;36.80;;;;;;5017259;28;20053;-58
2022/07/18 10:22:07;;;;;;;6.07;2.10;;;31.70;39.70;;;;;;5016809;28;20988;-60
2022/07/18 10:24:38;;;;;;;3.70;1.73;;;31.70;42.30;;;;;;5034307;28;20052;-61
2022/07/18 10:27:20;;;;;;;5.22;2.13;;;31.70;40.00;;;;;;5016738;28;20140;-60
2022/07/18 10:30:09;;;;;;;1.95;1.70;;;31.80;40.20;;;;;;5040611;28;20036;-60
2022/07/18 10:32:37;;;;;;;7.07;2.22;;;31.80;42.10;;;;;;5054246;28;20048;-60
2022/07/18 10:35:06;;;;;;;5.80;2.17;;;31.80;40.80;;;;;;5052461;28;20051;-60
2022/07/18 10:37:34;;;;;;;3.35;1.85;;;31.90;41.80;;;;;;5054301;28;20040;-60
2022/07/18 10:40:24;;;;;;;4.60;2.72;;;31.90;38.80;;;;;;5054243;28;20094;-59
2022/07/18 10:43:31;;;;;;;1.98;1.88;;;31.80;40.00;;;;;;5052650;28;20115;-60
2022/07/18 10:46:00;;;;;;;6.53;2.53;;;31.80;39.00;;;;;;5053634;28;20048;-60
2022/07/18 10:48:51;;;;;;;3.13;2.20;;;31.80;41.30;;;;;;5036796;28;20048;-60
2022/07/18 10:51:19;;;;;;;7.22;2.22;;;31.70;37.90;;;;;;5039631;28;20064;-60
2022/07/18 10:54:03;;;;;;;3.45;1.92;;;31.50;38.30;;;;;;5053500;28;20052;-60
2022/07/18 10:56:35;;;;;;;2.60;2.05;;;31.50;40.90;;;;;;5053731;28;20575;-60
2022/07/18 10:59:19;;;;;;;5.22;2.22;;;31.50;40.00;;;;;;5053122;28;20082;-59
2022/07/18 11:01:52;;;;;;;8.57;2.47;;;31.50;42.30;;;;;;5053352;28;20049;-60
2022/07/18 11:04:37;;;;;;;3.38;2.42;;;31.50;41.20;;;;;;5053855;28;20043;-60
2022/07/18 11:07:14;;;;;;;2.65;2.10;;;31.50;39.50;;;;;;5052243;28;20049;-60
2022/07/18 11:09:45;;;;;;;8.18;2.55;;;31.50;40.40;;;;;;5045442;28;20502;-60
2022/07/18 11:12:25;;;;;;;2.22;1.70;;;31.50;42.00;;;;;;5035810;28;20053;-59
2022/07/18 11:15:10;;;;;;;2.83;2.10;;;31.50;39.30;;;;;;5053612;28;20123;-61
2022/07/18 11:17:58;;;;;;;2.85;2.33;;;31.50;41.20;;;;;;5053164;28;20806;-58
2022/07/18 11:20:33;;;;;;;2.85;2.05;;;31.50;42.40;;;;;;5054027;28;20041;-60
2022/07/18 11:23:22;;;;;;;5.75;2.40;;;31.60;41.40;;;;;;5055743;28;20296;-59
2022/07/18 11:25:54;;;;;;;4.90;1.95;;;31.70;40.00;;;;;;5037842;28;20053;-59
2022/07/18 11:28:26;;;;;;;2.10;1.95;;;31.70;39.40;;;;;;5019832;28;20045;-60
2022/07/18 11:31:12;;;;;;;3.70;2.38;;;31.70;38.80;;;;;;5052549;28;20131;-59
2022/07/18 11:33:46;;;;;;;5.30;2.67;;;31.90;41.40;;;;;;5058292;28;20752;-60
2022/07/18 11:36:19;;;;;;;9.07;2.28;;;31.90;39.20;;;;;;5056432;28;20055;-59
2022/07/18 11:38:51;;;;;;;4.43;2.30;;;31.90;38.50;;;;;;5058552;28;20597;-60
2022/07/18 11:41:20;;;;;;;2.15;1.95;;;32.00;39.50;;;;;;5057351;28;20646;-58
2022/07/18 11:43:49;;;;;;;2.58;1.98;;;32.00;38.10;;;;;;5056035;28;20040;-60
2022/07/18 11:46:23;;;;;;;2.05;1.70;;;32.00;38.80;;;;;;5057352;28;20127;-60
2022/07/18 11:49:03;;;;;;;2.47;1.58;;;32.10;36.10;;;;;;5037914;28;20052;-60
2022/07/18 11:51:41;;;;;;;9.27;1.58;;;32.10;38.20;;;;;;5046364;28;20044;-61
2022/07/18 11:54:10;;;;;;;2.15;1.95;;;32.20;35.30;;;;;;5037536;28;20056;-61
2022/07/18 11:56:53;;;;;;;2.83;2.22;;;32.30;36.10;;;;;;5057192;28;20044;-61
2022/07/18 11:59:21;;;;;;;2.15;1.95;;;32.30;38.60;;;;;;5056510;28;20123;-60
2022/07/18 12:01:52;;;;;;;10.30;2.45;;;32.50;38.00;;;;;;5056671;28;20036;-60
2022/07/18 12:04:23;;;;;;;2.00;1.83;;;32.50;37.80;;;;;;5057150;28;20036;-60
2022/07/18 12:07:12;;;;;;;2.72;1.83;;;32.60;36.50;;;;;;5057272;28;20191;-60
2022/07/18 12:09:39;;;;;;;3.42;1.88;;;32.60;36.30;;;;;;5047586;28;20067;-61
2022/07/18 12:12:11;;;;;;;5.07;2.53;;;32.60;36.20;;;;;;5021705;28;20663;-59
2022/07/18 12:15:01;;;;;;;5.43;1.55;;;32.60;36.60;;;;;;5017854;28;20099;-60
2022/07/18 12:17:30;;;;;;;3.40;2.15;;;32.60;35.50;;;;;;5037188;28;20048;-61
2022/07/18 12:20:18;;;;;;;1.98;1.88;;;32.70;36.90;;;;;;5036232;28;20052;-59
2022/07/18 12:23:09;;;;;;;3.08;1.70;;;32.80;35.10;;;;;;5037175;28;20036;-61
2022/07/18 12:25:43;;;;;;;4.13;1.90;;;33.00;36.70;;;;;;5036155;28;20564;-60
2022/07/18 12:28:17;;;;;;;5.00;1.77;;;33.10;36.20;;;;;;5037582;28;20144;-61
2022/07/18 12:30:45;;;;;;;1.70;1.60;;;33.30;36.10;;;;;;5050777;28;20813;-60
2022/07/18 12:33:13;;;;;;;2.13;1.50;;;33.40;34.90;;;;;;5056996;28;20569;-60
2022/07/18 12:35:40;;;;;;;2.95;1.60;;;33.60;34.00;;;;;;5055646;28;20044;-60
2022/07/18 12:38:17;;;;;;;2.45;1.60;;;33.70;34.30;;;;;;5056944;28;20066;-61
2022/07/18 12:40:58;;;;;;;4.07;1.55;;;33.80;35.20;;;;;;5055759;28;20048;-61
2022/07/18 12:43:35;;;;;;;1.60;1.50;;;33.90;33.70;;;;;;5056654;28;20095;-61
2022/07/18 12:46:08;;;;;;;2.20;1.73;;;34.00;32.10;;;;;;5056794;28;20053;-60
2022/07/18 12:48:36;;;;;;;2.00;1.83;;;33.90;31.60;;;;;;5037647;28;20433;-61
2022/07/18 12:51:05;;;;;;;4.38;1.33;;;33.90;33.60;;;;;;5036552;28;20071;-60
2022/07/18 12:53:34;;;;;;;3.15;2.10;;;33.90;32.20;;;;;;5053095;28;20738;-59
2022/07/18 12:56:02;;;;;;;1.95;1.70;;;33.90;34.40;;;;;;5055943;28;20045;-60
2022/07/18 12:58:29;;;;;;;4.72;1.65;;;34.00;35.40;;;;;;5039548;28;20128;-61
2022/07/18 13:00:56;;;;;;;4.32;1.90;;;34.00;35.20;;;;;;5043704;28;20109;-60
2022/07/18 13:03:32;;;;;;;1.65;1.55;;;34.10;34.00;;;;;;5054813;28;20033;-62
2022/07/18 13:05:59;;;;;;;2.38;1.80;;;34.10;34.60;;;;;;5055975;28;20140;-63
2022/07/18 13:08:27;;;;;;;3.25;1.88;;;34.20;35.00;;;;;;5055176;28;20037;-65
2022/07/18 13:10:54;;;;;;;1.90;1.80;;;34.30;35.20;;;;;;5038467;28;20045;-63